createdAt,value
2022-09-07T00:02:30.476Z,3.33
2022-09-07T00:07:26.368Z,4.25
2022-09-07T00:12:20.300Z,3.30
2022-09-07T00:17:14.214Z,5.65
2022-09-07T00:22:09.743Z,5.18
2022-09-07T00:27:03.795Z,5.30
2022-09-07T00:31:57.896Z,6.38
2022-09-07T00:36:52.001Z,6.25
2022-09-07T00:41:45.991Z,7.00
2022-09-07T00:46:40.735Z,6.80
2022-09-07T00:51:48.810Z,4.97
2022-09-07T00:56:44.509Z,6.78
2022-09-07T01:01:39.892Z,5.85
2022-09-07T01:06:36.258Z,6.55
2022-09-07T01:11:29.527Z,5.20
2022-09-07T01:16:46.938Z,5.57
2022-09-07T01:22:07.737Z,5.55
2022-09-07T01:27:37.757Z,5.97
2022-09-07T01:32:38.847Z,5.75
2022-09-07T01:37:46.321Z,5.97
2022-09-07T01:43:05.563Z,7.28
2022-09-07T01:48:00.886Z,7.10
2022-09-07T01:53:20.576Z,7.50
2022-09-07T01:58:15.927Z,7.10
2022-09-07T02:03:15.891Z,7.80
2022-09-07T02:08:27.036Z,7.72
2022-09-07T02:13:24.410Z,8.55
2022-09-07T02:18:19.068Z,9.38
2022-09-07T02:23:42.886Z,8.70
2022-09-07T02:28:38.092Z,8.90
2022-09-07T02:33:31.765Z,10.05
2022-09-07T02:38:28.473Z,10.05
2022-09-07T02:43:23.995Z,10.50
2022-09-07T02:48:37.202Z,10.70
2022-09-07T02:53:45.308Z,10.43
2022-09-07T02:59:22.615Z,12.32
2022-09-07T03:04:40.052Z,11.35
2022-09-07T03:09:38.201Z,10.68
2022-09-07T03:14:35.158Z,11.70
2022-09-07T03:19:29.528Z,10.30
2022-09-07T03:24:25.269Z,8.63
2022-09-07T03:29:18.740Z,6.57
2022-09-07T03:34:12.360Z,6.70
2022-09-07T03:39:08.319Z,4.93
2022-09-07T03:44:09.028Z,4.95
2022-09-07T03:49:02.909Z,5.60
2022-09-07T03:53:56.468Z,8.27
2022-09-07T03:58:51.316Z,8.20
2022-09-07T04:03:45.758Z,8.18
2022-09-07T04:08:40.802Z,8.57
2022-09-07T04:13:36.692Z,7.93
2022-09-07T04:18:31.509Z,6.38
2022-09-07T04:23:25.685Z,5.00
2022-09-07T04:28:20.154Z,4.00
2022-09-07T04:33:15.085Z,4.13
2022-09-07T04:38:09.909Z,5.25
2022-09-07T04:43:06.231Z,5.43
2022-09-07T04:47:59.881Z,5.93
2022-09-07T04:52:54.137Z,6.60
2022-09-07T04:57:51.483Z,5.65
2022-09-07T05:02:45.279Z,5.22
2022-09-07T05:07:40.058Z,5.35
2022-09-07T05:12:34.032Z,4.38
2022-09-07T05:17:27.672Z,4.20
2022-09-07T05:22:23.225Z,3.90
2022-09-07T05:27:16.891Z,4.25
2022-09-07T05:32:10.806Z,4.20
2022-09-07T05:37:04.891Z,4.85
2022-09-07T05:41:59.034Z,4.40
2022-09-07T05:46:55.745Z,3.67
2022-09-07T05:51:50.423Z,3.88
2022-09-07T05:56:44.589Z,4.00
2022-09-07T06:01:38.850Z,4.20
2022-09-07T06:06:33.687Z,5.35
2022-09-07T06:11:28.083Z,5.10
2022-09-07T06:16:21.826Z,5.05
2022-09-07T06:21:19.132Z,4.93
2022-09-07T06:26:18.294Z,4.93
2022-09-07T06:37:00.575Z,7.03
2022-09-07T06:41:58.716Z,4.88
2022-09-07T06:47:03.248Z,6.38
2022-09-07T06:51:57.761Z,5.68
2022-09-07T06:56:52.159Z,5.68
2022-09-07T07:01:46.315Z,5.00
2022-09-07T07:06:41.404Z,5.80
2022-09-07T07:11:38.009Z,6.55
2022-09-07T07:16:31.942Z,5.43
2022-09-07T07:21:27.184Z,5.35
2022-09-07T07:26:24.312Z,5.18
2022-09-07T07:31:19.786Z,4.82
2022-09-07T07:36:22.324Z,5.40
2022-09-07T07:46:33.196Z,6.88
2022-09-07T07:51:26.695Z,7.57
2022-09-07T07:56:20.987Z,7.75
2022-09-07T08:01:17.075Z,7.93
2022-09-07T08:06:16.067Z,8.75
2022-09-07T08:11:20.442Z,6.88
2022-09-07T08:16:15.956Z,7.75
2022-09-07T08:21:13.600Z,6.57
2022-09-07T08:26:08.917Z,7.25
2022-09-07T08:31:26.525Z,6.95
2022-09-07T08:36:23.008Z,8.20
2022-09-07T08:41:55.063Z,6.85
2022-09-07T08:47:22.455Z,6.05
2022-09-07T08:52:22.197Z,5.75
2022-09-07T08:57:21.434Z,5.85
2022-09-07T09:02:38.331Z,6.97
2022-09-07T09:08:03.654Z,7.47
2022-09-07T09:13:08.935Z,6.00
2022-09-07T09:18:14.592Z,8.50
2022-09-07T09:23:13.787Z,5.65
2022-09-07T09:28:08.176Z,7.25
2022-09-07T09:33:21.827Z,8.23
2022-09-07T09:38:32.618Z,8.98
2022-09-07T09:43:28.929Z,7.65
2022-09-07T09:48:27.604Z,9.00
2022-09-07T09:53:30.844Z,9.30
2022-09-07T10:09:06.039Z,10.05
2022-09-07T10:14:00.873Z,12.15
2022-09-07T10:18:59.262Z,11.73
2022-09-07T10:24:07.937Z,11.40
2022-09-07T10:29:13.887Z,10.25
2022-09-07T10:34:26.143Z,8.18
2022-09-07T10:44:39.287Z,8.65
2022-09-07T10:55:35.993Z,8.25
2022-09-07T11:00:37.020Z,8.18
2022-09-07T11:05:59.506Z,8.50
2022-09-07T11:11:14.178Z,8.30
2022-09-07T11:21:56.755Z,8.45
2022-09-07T11:26:57.202Z,8.48
2022-09-07T11:32:13.016Z,7.97
2022-09-07T11:37:31.799Z,7.40
2022-09-07T11:42:48.059Z,7.05
2022-09-07T11:48:08.549Z,6.50
2022-09-07T11:53:09.085Z,5.93
2022-09-07T11:58:50.392Z,6.07
2022-09-07T12:03:49.752Z,5.80
2022-09-07T12:09:06.197Z,5.18
2022-09-07T12:14:11.231Z,5.45
2022-09-07T12:19:18.215Z,4.90
2022-09-07T12:24:35.679Z,4.80
2022-09-07T12:29:30.360Z,4.97
2022-09-07T12:34:32.028Z,5.10
2022-09-07T12:44:29.092Z,5.18
2022-09-07T12:49:31.740Z,5.53
2022-09-07T12:54:27.947Z,4.80
2022-09-07T12:59:42.778Z,4.47
2022-09-07T13:04:52.638Z,4.75
2022-09-07T13:09:58.355Z,4.03
2022-09-07T13:15:30.225Z,4.00
2022-09-07T13:20:30.937Z,3.83
2022-09-07T13:25:26.901Z,5.22
2022-09-07T13:30:57.786Z,5.05
2022-09-07T13:35:56.565Z,3.85
2022-09-07T13:40:51.839Z,4.20
2022-09-07T13:45:51.240Z,4.43
2022-09-07T13:51:19.904Z,3.55
2022-09-07T13:56:22.134Z,4.25
2022-09-07T14:06:21.671Z,3.83
2022-09-07T14:11:23.516Z,4.20
2022-09-07T14:16:24.987Z,3.75
2022-09-07T14:21:19.168Z,4.28
2022-09-07T14:26:23.526Z,4.32
2022-09-07T14:31:18.989Z,4.30
2022-09-07T14:36:39.458Z,4.03
2022-09-07T14:41:32.438Z,3.83
2022-09-07T14:46:31.783Z,4.45
2022-09-07T14:51:36.080Z,3.72
2022-09-07T14:56:39.688Z,4.40
2022-09-07T15:01:40.729Z,3.78
2022-09-07T15:12:17.907Z,4.82
2022-09-07T15:17:48.480Z,4.43
2022-09-07T15:22:43.743Z,4.40
2022-09-07T15:27:42.008Z,3.85
2022-09-07T15:32:36.658Z,3.40
2022-09-07T15:43:01.442Z,4.43
2022-09-07T15:47:57.811Z,3.53
2022-09-07T15:52:51.478Z,3.35
2022-09-07T15:57:51.260Z,4.35
2022-09-07T16:03:06.381Z,3.00
2022-09-07T16:13:16.808Z,3.67
2022-09-07T16:18:17.089Z,4.18
2022-09-07T16:23:15.247Z,4.13
2022-09-07T16:28:11.064Z,4.03
2022-09-07T16:33:05.351Z,4.55
2022-09-07T16:43:14.789Z,4.15
2022-09-07T16:48:08.795Z,4.22
2022-09-07T16:53:02.613Z,3.67
2022-09-07T17:03:11.383Z,3.78
2022-09-07T17:08:05.847Z,3.85
2022-09-07T17:12:59.351Z,4.18
2022-09-07T17:17:53.094Z,4.43
2022-09-07T17:22:46.719Z,4.53
2022-09-07T17:27:41.288Z,4.40
2022-09-07T17:32:38.600Z,4.05
2022-09-07T17:37:32.955Z,4.38
2022-09-07T17:43:38.767Z,5.10
2022-09-07T17:47:46.180Z,3.85
2022-09-07T17:52:45.527Z,3.67
2022-09-07T17:57:39.948Z,5.35
2022-09-07T18:02:34.336Z,4.70
2022-09-07T18:07:28.728Z,4.35
2022-09-07T18:12:22.932Z,4.57
2022-09-07T18:17:17.460Z,4.85
2022-09-07T18:22:11.733Z,5.00
2022-09-07T18:27:05.561Z,5.47
2022-09-07T18:31:59.411Z,5.53
2022-09-07T18:36:53.837Z,5.40
2022-09-07T18:41:49.175Z,5.38
2022-09-07T18:46:42.458Z,5.60
2022-09-07T18:52:51.646Z,4.85
2022-09-07T18:56:50.493Z,4.68
2022-09-07T19:01:45.409Z,4.32
2022-09-07T19:06:39.189Z,4.90
2022-09-07T19:11:33.012Z,4.95
2022-09-07T19:16:28.341Z,4.80
2022-09-07T19:21:23.715Z,4.75
2022-09-07T19:26:17.787Z,4.85
2022-09-07T19:31:13.137Z,5.65
2022-09-07T19:36:07.320Z,6.32
2022-09-07T19:41:02.704Z,5.50
2022-09-07T19:45:56.504Z,5.65
2022-09-07T19:50:51.864Z,6.78
2022-09-07T19:55:45.567Z,6.72
2022-09-07T20:00:42.009Z,7.63
2022-09-07T20:05:39.421Z,6.43
2022-09-07T20:10:36.183Z,7.45
2022-09-07T20:15:30.396Z,6.55
2022-09-07T20:20:24.075Z,6.50
2022-09-07T20:25:17.373Z,7.85
2022-09-07T20:30:14.153Z,7.03
2022-09-07T20:35:09.918Z,7.72
2022-09-07T20:40:04.553Z,8.05
2022-09-07T20:44:58.918Z,7.82
2022-09-07T20:49:53.475Z,7.63
2022-09-07T20:54:47.654Z,8.80
2022-09-07T20:59:41.429Z,8.82
2022-09-07T21:04:35.988Z,8.93
2022-09-07T21:09:29.387Z,12.23
2022-09-07T21:14:23.957Z,10.85
2022-09-07T21:19:18.773Z,9.48
2022-09-07T21:24:22.780Z,10.10
2022-09-07T21:29:21.308Z,8.73
2022-09-07T21:34:15.915Z,9.93
2022-09-07T21:39:13.838Z,11.07
2022-09-07T21:44:08.244Z,12.18
2022-09-07T21:49:02.100Z,12.93
2022-09-07T21:53:56.129Z,12.90
2022-09-07T21:58:52.988Z,15.15
2022-09-07T22:03:48.655Z,13.95
2022-09-07T22:08:42.102Z,14.95
2022-09-07T22:13:36.387Z,14.68
2022-09-07T22:18:33.001Z,15.77
2022-09-07T22:23:27.243Z,15.65
2022-09-07T22:28:21.121Z,17.38
2022-09-07T22:33:14.409Z,18.15
2022-09-07T22:38:08.365Z,20.00
2022-09-07T22:43:02.448Z,22.17
2022-09-07T22:47:56.883Z,22.73
2022-09-07T22:52:51.417Z,21.02
2022-09-07T22:57:46.961Z,19.17
2022-09-07T23:02:41.586Z,18.10
2022-09-07T23:07:35.885Z,18.05
2022-09-07T23:12:30.389Z,15.73
2022-09-07T23:17:33.993Z,14.20
2022-09-07T23:22:29.295Z,16.52
2022-09-07T23:27:23.060Z,14.75
2022-09-07T23:32:16.950Z,29.42
2022-09-07T23:37:11.212Z,21.80
2022-09-07T23:42:05.677Z,30.85
2022-09-07T23:47:00.156Z,33.63
2022-09-07T23:51:54.254Z,33.15
2022-09-07T23:56:47.561Z,37.13
